Αναφορές Αεροδρομίων

 

KSJC - San Jose, California, USA
Distance from station: ΒΑ 14km
Ενημερώθηκε: 14/10/2019 05:53
Αίθριος
Αίθριος
 Ανεμος από ΔΒΔ
Ανεμος: ΔΒΔ 13 km/h
Θερμοκρασία: 16°C
Σημείο Δρόσου: 9°C
Υγρασία: 63%
Βαρόμετρο: 1011.2 hPa
Clouds: Αίθριος
Visibility: 16 km
2019/10/14 02:53 KSJC 140253Z 30007KT 10SM CLR 16/09 A2986 RMK AO2 SLP111 T01560094 53013
KNUQ - Moffett Nas/Mtn, California, USA
Distance from station: Β 14km
Ενημερώθηκε: 14/10/2019 05:56

 
Βαρόμετρο: 1011.5 hPa
2019/10/14 02:56 KNUQ 140256Z A2987 RMK AO2 SLP119 53014 PWINO $
 
KPAO - Palo Alto, California, USA
Distance from station: ΒΒΔ 23km
Ενημερώθηκε: 14/10/2019 05:47
Αίθριος
Αίθριος
 Ανεμος από ΔΒΔ
Ανεμος: ΔΒΔ 11 km/h
Θερμοκρασία: 14°C
Σημείο Δρόσου: 8°C
Υγρασία: 67%
Βαρόμετρο: 1011.2 hPa
Clouds: Αίθριος
Visibility: 16 km
2019/10/14 02:47 KPAO 140247Z 30006KT 10SM SKC 14/08 A2986
KRHV - San Jose/Reid, California, USA
Distance from station: ΑΒΑ 19km
Ενημερώθηκε: 14/10/2019 05:47
Αίθριος
Αίθριος
 Ανεμος από Δ
Ανεμος: Δ 11 km/h
Θερμοκρασία: 17°C
Σημείο Δρόσου: 5°C
Υγρασία: 45%
Βαρόμετρο: 1011.2 hPa
Clouds: Αίθριος
Visibility: 16 km
2019/10/14 02:47 KRHV 140247Z 27006KT 10SM SKC 17/05 A2986
 
KOAK - Oakland, California, USA
Distance from station: ΒΒΔ 50km
Ενημερώθηκε: 14/10/2019 05:53
Λίγα Σύννεφα
Λίγα Σύννεφα
 Ανεμος από ΔΒΔ
Ανεμος: ΔΒΔ 11 km/h
Θερμοκρασία: 13°C
Σημείο Δρόσου: 9°C
Υγρασία: 77%
Βαρόμετρο: 1011.2 hPa
Clouds: Λίγα Σύννεφα
Visibility: 16 km
Cloud details: Λίγα Σύννεφα 244 m
Λίγα Σύννεφα 4267 m
2019/10/14 02:53 KOAK 140253Z 30006KT 10SM FEW008 FEW140 13/09 A2986 RMK AO2 SLP112 T01330089 53006 $
KSQL - San Carlos Airpo, California, USA
Distance from station: ΒΔ 34km
Ενημερώθηκε: 14/10/2019 05:57
Αίθριος
Αίθριος
 Ανεμος από ΔΒΔ
Ανεμος: ΔΒΔ 13 km/h
Θερμοκρασία: 15°C
Σημείο Δρόσου: 4°C
Υγρασία: 48%
Βαρόμετρο: 1011.5 hPa
Clouds: Αίθριος
Visibility: 16 km
2019/10/14 02:57 KSQL 140257Z 30007KT 10SM SKC 15/04 A2987
 
KSFO - San Francisco, California, USA
Distance from station: ΒΔ 49km
Ενημερώθηκε: 14/10/2019 05:56
Λίγα Σύννεφα
Λίγα Σύννεφα
 Ανεμος από ΒΔ
Ανεμος: ΒΔ 19 km/h
Θερμοκρασία: 13°C
Σημείο Δρόσου: 9°C
Υγρασία: 77%
Βαρόμετρο: 1011.2 hPa
Clouds: Λίγα Σύννεφα
Visibility: 16 km
Cloud details: Λίγα Σύννεφα 305 m
2019/10/14 02:56 KSFO 140256Z 32010KT 10SM FEW010 13/09 A2986 RMK AO2 SLP111 T01330094 53007
KE16 - San Martin, California, USA
Distance from station: ΑΝΑ 43km
Ενημερώθηκε: 14/10/2019 05:55
Λίγα Σύννεφα
Λίγα Σύννεφα
 Ανεμος από ΝΑ
Ανεμος: ΝΑ 7 km/h
Θερμοκρασία: 14°C
Σημείο Δρόσου: 7°C
Υγρασία: 63%
Βαρόμετρο: 1011.9 hPa
Clouds: Λίγα Σύννεφα
Visibility: 16 km
Cloud details: Λίγα Σύννεφα 1981 m
2019/10/14 02:55 KE16 140255Z AUTO 14004KT 10SM FEW065 14/07 A2988 RMK AO2
 
KWVI - Watsonville, California, USA
Distance from station: ΝΝΑ 44km
Ενημερώθηκε: 14/10/2019 05:53
Λίγα Σύννεφα
Λίγα Σύννεφα
 Ανεμος από calm
Ανεμος: Απνοια
Θερμοκρασία: 12°C
Σημείο Δρόσου: 10°C
Υγρασία: 88%
Βαρόμετρο: 1012.2 hPa
Clouds: Λίγα Σύννεφα
Visibility: 16 km
Cloud details: Λίγα Σύννεφα 244 m
2019/10/14 02:53 KWVI 140253Z AUTO 00000KT 10SM FEW008 12/10 A2989 RMK AO2 SLP121 T01220100 53009
KHAF - Half Moon Bay, California, USA
Distance from station: ΔΒΔ 50km
Ενημερώθηκε: 14/10/2019 05:55
Συννεφιά
Συννεφιά
 Ανεμος από ΒΑ
Ανεμος: ΒΑ 7 km/h
Θερμοκρασία: 9°C
Wind Chill: 8°C
Σημείο Δρόσου: 8°C
Υγρασία: 94%
Βαρόμετρο: 1012.2 hPa
Clouds: Συννεφιά
Visibility: 16 km
Cloud details: Σχεδόν νεφελώδης 274 m
Συννεφιά 1341 m
2019/10/14 02:55 KHAF 140255Z AUTO 05004KT 10SM BKN009 OVC044 09/08 A2989 RMK AO2
 
KHWD - Hayward, California, USA
Distance from station: Β 44km
Ενημερώθηκε: 14/10/2019 05:54
Αίθριος
Αίθριος
 Ανεμος από calm
Ανεμος: Απνοια
Θερμοκρασία: 14°C
Σημείο Δρόσου: 7°C
Υγρασία: 63%
Βαρόμετρο: 1011.2 hPa
Clouds: Αίθριος
Visibility: 16 km
2019/10/14 02:54 KHWD 140254Z 00000KT 10SM CLR 14/07 A2986 RMK AO2 SLP121 T01390072 53008
KLVK - Livermore, California, USA
Distance from station: ΒΒΑ 51km
Ενημερώθηκε: 14/10/2019 05:53
Αίθριος
Αίθριος
 Ανεμος από ΒΒΔ
Ανεμος: ΒΒΔ 9 km/h
Θερμοκρασία: 17°C
Σημείο Δρόσου: 4°C
Υγρασία: 42%
Βαρόμετρο: 1010.8 hPa
Clouds: Αίθριος
Visibility: 16 km
2019/10/14 02:53 KLVK 140253Z 33005KT 10SM CLR 17/04 A2985 RMK AO2 SLP105 T01670039 53013